sensor_id;sensor_type;location;lat;lon;timestamp;pressure;altitude;pressure_sealevel;temperature;humidity
48778;BME280;34578;0.000;0.000;2023-02-03T00:04:00;98037.38;;;16.80;54.28
48778;BME280;34578;0.000;0.000;2023-02-03T00:09:03;98030.69;;;16.80;53.90
48778;BME280;34578;0.000;0.000;2023-02-03T00:14:03;98039.00;;;16.77;54.55
48778;BME280;34578;0.000;0.000;2023-02-03T00:19:04;98043.28;;;16.79;53.96
48778;BME280;34578;0.000;0.000;2023-02-03T00:24:05;98042.19;;;16.71;54.65
48778;BME280;34578;0.000;0.000;2023-02-03T00:29:05;98050.84;;;16.77;54.03
48778;BME280;34578;0.000;0.000;2023-02-03T00:34:06;98041.56;;;16.78;54.35
48778;BME280;34578;0.000;0.000;2023-02-03T00:39:06;98043.19;;;16.76;54.40
48778;BME280;34578;0.000;0.000;2023-02-03T00:44:07;98038.13;;;16.76;53.91
48778;BME280;34578;0.000;0.000;2023-02-03T00:49:08;98060.09;;;16.77;54.02
48778;BME280;34578;0.000;0.000;2023-02-03T00:54:08;98024.50;;;16.71;54.05
48778;BME280;34578;0.000;0.000;2023-02-03T00:59:09;98045.72;;;16.76;53.45
48778;BME280;34578;0.000;0.000;2023-02-03T01:04:10;98041.56;;;16.78;54.03
48778;BME280;34578;0.000;0.000;2023-02-03T01:09:10;98056.66;;;16.75;54.50
48778;BME280;34578;0.000;0.000;2023-02-03T01:14:10;98066.00;;;16.77;55.98
48778;BME280;34578;0.000;0.000;2023-02-03T01:19:11;98070.19;;;16.77;55.98
48778;BME280;34578;0.000;0.000;2023-02-03T01:24:12;98063.44;;;16.76;54.14
48778;BME280;34578;0.000;0.000;2023-02-03T01:29:14;98071.00;;;16.76;54.17
48778;BME280;34578;0.000;0.000;2023-02-03T01:34:14;98065.84;;;16.72;54.74
48778;BME280;34578;0.000;0.000;2023-02-03T01:39:18;98064.13;;;16.71;54.63
48778;BME280;34578;0.000;0.000;2023-02-03T01:44:37;98062.47;;;16.73;54.50
48778;BME280;34578;0.000;0.000;2023-02-03T01:49:39;98066.53;;;16.66;54.37
48778;BME280;34578;0.000;0.000;2023-02-03T01:54:43;98070.00;;;16.71;53.90
48778;BME280;34578;0.000;0.000;2023-02-03T01:59:44;98070.84;;;16.70;54.54
48778;BME280;34578;0.000;0.000;2023-02-03T02:05:06;98065.78;;;16.70;54.28
48778;BME280;34578;0.000;0.000;2023-02-03T02:10:09;98032.91;;;16.70;54.47
48778;BME280;34578;0.000;0.000;2023-02-03T02:15:10;98021.06;;;16.69;54.40
48778;BME280;34578;0.000;0.000;2023-02-03T02:20:53;98001.72;;;16.70;54.21
48778;BME280;34578;0.000;0.000;2023-02-03T02:36:47;98000.97;;;16.73;55.75
48778;BME280;34578;0.000;0.000;2023-02-03T02:41:56;98019.44;;;16.71;55.25
48778;BME280;34578;0.000;0.000;2023-02-03T02:47:01;98021.91;;;16.68;54.53
48778;BME280;34578;0.000;0.000;2023-02-03T02:52:07;98022.78;;;16.70;54.34
48778;BME280;34578;0.000;0.000;2023-02-03T02:57:10;98013.50;;;16.69;54.39
48778;BME280;34578;0.000;0.000;2023-02-03T03:02:13;97993.22;;;16.67;54.65
48778;BME280;34578;0.000;0.000;2023-02-03T03:07:18;97983.09;;;16.67;54.49
48778;BME280;34578;0.000;0.000;2023-02-03T03:12:29;97956.97;;;16.67;53.98
48778;BME280;34578;0.000;0.000;2023-02-03T03:17:33;97946.78;;;16.64;54.50
48778;BME280;34578;0.000;0.000;2023-02-03T03:22:41;97971.38;;;16.70;54.15
48778;BME280;34578;0.000;0.000;2023-02-03T03:27:50;97961.97;;;16.64;54.51
48778;BME280;34578;0.000;0.000;2023-02-03T03:32:53;97983.91;;;16.67;54.55
48778;BME280;34578;0.000;0.000;2023-02-03T03:37:58;97985.59;;;16.66;54.56
48778;BME280;34578;0.000;0.000;2023-02-03T03:43:20;97987.25;;;16.66;54.32
48778;BME280;34578;0.000;0.000;2023-02-03T03:48:33;97980.72;;;16.72;54.03
48778;BME280;34578;0.000;0.000;2023-02-03T03:53:38;97973.91;;;16.71;55.46
48778;BME280;34578;0.000;0.000;2023-02-03T03:58:42;97978.97;;;16.71;54.11
48778;BME280;34578;0.000;0.000;2023-02-03T04:03:47;97976.34;;;16.67;54.07
48778;BME280;34578;0.000;0.000;2023-02-03T04:08:48;97977.19;;;16.67;53.89
48778;BME280;34578;0.000;0.000;2023-02-03T04:13:48;97962.75;;;16.63;53.93
48778;BME280;34578;0.000;0.000;2023-02-03T04:18:49;97955.13;;;16.62;54.11
48778;BME280;34578;0.000;0.000;2023-02-03T04:23:49;97968.69;;;16.64;53.63
48778;BME280;34578;0.000;0.000;2023-02-03T04:28:51;97982.19;;;16.66;53.70
48778;BME280;34578;0.000;0.000;2023-02-03T04:33:51;98013.25;;;16.60;53.67
48778;BME280;34578;0.000;0.000;2023-02-03T04:38:52;98032.75;;;16.64;53.68
48778;BME280;34578;0.000;0.000;2023-02-03T04:43:52;98021.00;;;16.66;53.46
48778;BME280;34578;0.000;0.000;2023-02-03T04:48:52;98003.94;;;16.59;53.51
48778;BME280;34578;0.000;0.000;2023-02-03T04:53:53;98015.94;;;16.66;53.47
48778;BME280;34578;0.000;0.000;2023-02-03T04:58:53;98023.59;;;16.69;52.93
48778;BME280;34578;0.000;0.000;2023-02-03T05:03:53;98002.66;;;16.73;52.85
48778;BME280;34578;0.000;0.000;2023-02-03T05:08:54;97995.97;;;16.75;53.38
48778;BME280;34578;0.000;0.000;2023-02-03T05:13:54;97983.16;;;16.69;53.75
48778;BME280;34578;0.000;0.000;2023-02-03T05:18:55;98006.16;;;16.78;52.39
48778;BME280;34578;0.000;0.000;2023-02-03T05:23:55;97992.75;;;16.80;51.80
48778;BME280;34578;0.000;0.000;2023-02-03T05:28:55;97987.72;;;16.82;52.21
48778;BME280;34578;0.000;0.000;2023-02-03T05:33:56;97977.69;;;16.85;51.97
48778;BME280;34578;0.000;0.000;2023-02-03T05:38:57;97961.63;;;16.84;51.95
48778;BME280;34578;0.000;0.000;2023-02-03T05:43:58;97959.91;;;16.82;52.02
48778;BME280;34578;0.000;0.000;2023-02-03T05:48:58;97969.09;;;16.78;51.86
48778;BME280;34578;0.000;0.000;2023-02-03T05:53:58;97968.28;;;16.79;52.75
48778;BME280;34578;0.000;0.000;2023-02-03T05:58:59;97977.44;;;16.76;53.08
48778;BME280;34578;0.000;0.000;2023-02-03T06:04:00;97980.84;;;16.77;53.09
48778;BME280;34578;0.000;0.000;2023-02-03T06:09:02;97996.13;;;16.81;52.73
48778;BME280;34578;0.000;0.000;2023-02-03T06:14:03;97997.84;;;16.82;53.23
48778;BME280;34578;0.000;0.000;2023-02-03T06:19:03;97997.78;;;16.80;51.67
48778;BME280;34578;0.000;0.000;2023-02-03T06:24:07;97986.94;;;16.84;52.81
48778;BME280;34578;0.000;0.000;2023-02-03T06:29:07;98001.19;;;16.81;54.43
48778;BME280;34578;0.000;0.000;2023-02-03T06:34:07;98035.84;;;16.85;52.23
48778;BME280;34578;0.000;0.000;2023-02-03T06:39:08;98035.69;;;16.79;51.55
48778;BME280;34578;0.000;0.000;2023-02-03T06:44:09;98044.19;;;16.81;52.53
48778;BME280;34578;0.000;0.000;2023-02-03T06:49:09;98070.25;;;16.78;53.50
48778;BME280;34578;0.000;0.000;2023-02-03T06:54:11;98068.56;;;16.79;52.58
48778;BME280;34578;0.000;0.000;2023-02-03T06:59:11;98058.38;;;16.76;51.75
48778;BME280;34578;0.000;0.000;2023-02-03T07:04:12;98055.78;;;16.73;52.77
48778;BME280;34578;0.000;0.000;2023-02-03T07:09:12;98044.66;;;16.68;53.23
48778;BME280;34578;0.000;0.000;2023-02-03T07:14:13;98031.25;;;16.71;53.22
48778;BME280;34578;0.000;0.000;2023-02-03T07:19:13;98031.19;;;16.69;53.04
48778;BME280;34578;0.000;0.000;2023-02-03T07:24:14;98037.13;;;16.70;52.71
48778;BME280;34578;0.000;0.000;2023-02-03T07:29:14;98029.44;;;16.67;52.75
48778;BME280;34578;0.000;0.000;2023-02-03T07:34:14;98003.31;;;16.67;52.96
48778;BME280;34578;0.000;0.000;2023-02-03T07:39:17;97988.25;;;16.71;52.79
48778;BME280;34578;0.000;0.000;2023-02-03T07:44:18;97979.78;;;16.70;53.82
48778;BME280;34578;0.000;0.000;2023-02-03T07:49:18;98003.31;;;16.67;53.77
48778;BME280;34578;0.000;0.000;2023-02-03T07:54:19;98031.38;;;16.75;52.63
48778;BME280;34578;0.000;0.000;2023-02-03T07:59:19;98054.94;;;16.74;52.60
48778;BME280;34578;0.000;0.000;2023-02-03T08:04:20;98022.91;;;16.73;52.88
48778;BME280;34578;0.000;0.000;2023-02-03T08:09:20;98011.09;;;16.73;52.97
48778;BME280;34578;0.000;0.000;2023-02-03T08:14:20;98016.88;;;16.70;53.36
48778;BME280;34578;0.000;0.000;2023-02-03T08:19:21;98013.53;;;16.71;53.74
48778;BME280;34578;0.000;0.000;2023-02-03T08:24:21;97994.16;;;16.71;54.28
48778;BME280;34578;0.000;0.000;2023-02-03T08:29:21;97996.69;;;16.71;54.55
48778;BME280;34578;0.000;0.000;2023-02-03T08:34:22;98004.38;;;16.74;54.36
48778;BME280;34578;0.000;0.000;2023-02-03T08:39:22;98022.06;;;16.74;53.77
48778;BME280;34578;0.000;0.000;2023-02-03T08:44:22;98027.13;;;16.74;53.51
48778;BME280;34578;0.000;0.000;2023-02-03T08:49:25;98021.25;;;16.75;53.61
48778;BME280;34578;0.000;0.000;2023-02-03T08:54:26;98032.09;;;16.71;53.62
48778;BME280;34578;0.000;0.000;2023-02-03T08:59:27;98026.50;;;16.81;54.16
48778;BME280;34578;0.000;0.000;2023-02-03T09:04:28;98026.31;;;16.75;55.35
48778;BME280;34578;0.000;0.000;2023-02-03T09:09:29;98050.78;;;16.76;55.29
48778;BME280;34578;0.000;0.000;2023-02-03T09:14:31;98051.69;;;16.78;54.63
48778;BME280;34578;0.000;0.000;2023-02-03T09:19:32;98054.25;;;16.79;54.46
48778;BME280;34578;0.000;0.000;2023-02-03T09:24:32;98062.75;;;16.81;54.45
48778;BME280;34578;0.000;0.000;2023-02-03T09:29:33;98077.84;;;16.80;53.66
48778;BME280;34578;0.000;0.000;2023-02-03T09:34:33;98074.38;;;16.75;53.87
48778;BME280;34578;0.000;0.000;2023-02-03T09:39:34;98094.47;;;16.71;54.10
48778;BME280;34578;0.000;0.000;2023-02-03T09:49:55;98087.81;;;16.74;54.54
48778;BME280;34578;0.000;0.000;2023-02-03T10:00:03;98104.47;;;16.67;55.00
48778;BME280;34578;0.000;0.000;2023-02-03T10:05:24;98095.16;;;16.65;55.20
48778;BME280;34578;0.000;0.000;2023-02-03T10:15:55;98104.06;;;16.82;54.11
48778;BME280;34578;0.000;0.000;2023-02-03T10:21:03;98104.97;;;16.84;54.27
48778;BME280;34578;0.000;0.000;2023-02-03T10:26:15;98099.09;;;16.85;53.96
48778;BME280;34578;0.000;0.000;2023-02-03T10:31:20;98099.16;;;16.86;52.92
48778;BME280;34578;0.000;0.000;2023-02-03T10:41:48;98086.69;;;16.94;52.91
48778;BME280;34578;0.000;0.000;2023-02-03T10:46:49;98102.00;;;16.98;52.79
48778;BME280;34578;0.000;0.000;2023-02-03T10:51:51;98087.75;;;17.02;53.24
48778;BME280;34578;0.000;0.000;2023-02-03T10:56:52;98079.28;;;17.00;53.23
48778;BME280;34578;0.000;0.000;2023-02-03T11:01:54;98056.47;;;16.98;53.00
48778;BME280;34578;0.000;0.000;2023-02-03T11:07:00;98048.75;;;16.94;53.51
48778;BME280;34578;0.000;0.000;2023-02-03T11:12:14;98055.63;;;16.98;53.12
48778;BME280;34578;0.000;0.000;2023-02-03T11:17:17;98066.50;;;16.95;53.69
48778;BME280;34578;0.000;0.000;2023-02-03T11:22:29;98074.00;;;16.92;54.06
48778;BME280;34578;0.000;0.000;2023-02-03T11:27:32;98056.97;;;16.85;54.10
48778;BME280;34578;0.000;0.000;2023-02-03T11:32:35;98053.75;;;16.91;54.75
48778;BME280;34578;0.000;0.000;2023-02-03T11:37:43;98032.47;;;16.84;55.45
48778;BME280;34578;0.000;0.000;2023-02-03T11:48:12;98055.28;;;16.86;54.28
48778;BME280;34578;0.000;0.000;2023-02-03T11:53:25;98048.44;;;16.82;54.30
48778;BME280;34578;0.000;0.000;2023-02-03T12:14:31;98003.63;;;16.78;54.03
48778;BME280;34578;0.000;0.000;2023-02-03T12:25:21;97992.63;;;16.76;54.64
48778;BME280;34578;0.000;0.000;2023-02-03T12:30:27;97979.09;;;16.74;54.67
48778;BME280;34578;0.000;0.000;2023-02-03T12:35:38;97986.66;;;16.74;54.81
48778;BME280;34578;0.000;0.000;2023-02-03T12:40:45;97990.97;;;16.78;54.52
48778;BME280;34578;0.000;0.000;2023-02-03T12:45:59;97977.44;;;16.76;54.63
48778;BME280;34578;0.000;0.000;2023-02-03T12:51:05;97982.66;;;16.82;55.20
48778;BME280;34578;0.000;0.000;2023-02-03T12:56:17;97966.69;;;16.83;56.68
48778;BME280;34578;0.000;0.000;2023-02-03T13:01:24;97972.78;;;16.91;54.44
48778;BME280;34578;0.000;0.000;2023-02-03T13:11:45;97977.34;;;17.04;54.73
48778;BME280;34578;0.000;0.000;2023-02-03T13:16:53;97968.13;;;17.06;55.25
48778;BME280;34578;0.000;0.000;2023-02-03T13:21:54;97953.00;;;17.09;54.98
48778;BME280;34578;0.000;0.000;2023-02-03T13:32:27;97954.91;;;17.17;54.93
48778;BME280;34578;0.000;0.000;2023-02-03T13:37:36;97963.38;;;17.18;55.36
48778;BME280;34578;0.000;0.000;2023-02-03T13:42:44;97956.75;;;17.23;55.31
48778;BME280;34578;0.000;0.000;2023-02-03T13:47:48;97956.00;;;17.27;55.20
48778;BME280;34578;0.000;0.000;2023-02-03T13:52:57;97972.06;;;17.29;54.89
48778;BME280;34578;0.000;0.000;2023-02-03T13:57:59;97988.84;;;17.24;55.27
48778;BME280;34578;0.000;0.000;2023-02-03T14:02:59;97970.28;;;17.25;55.27
48778;BME280;34578;0.000;0.000;2023-02-03T14:13:29;97975.03;;;17.13;54.82
48778;BME280;34578;0.000;0.000;2023-02-03T14:18:35;97980.31;;;17.22;54.40
48778;BME280;34578;0.000;0.000;2023-02-03T14:23:47;97992.19;;;17.23;53.84
48778;BME280;34578;0.000;0.000;2023-02-03T14:28:49;97981.47;;;17.34;53.02
48778;BME280;34578;0.000;0.000;2023-02-03T14:38:54;97980.88;;;17.43;51.87
48778;BME280;34578;0.000;0.000;2023-02-03T14:49:42;97977.38;;;17.38;51.89
48778;BME280;34578;0.000;0.000;2023-02-03T15:00:45;97949.25;;;17.27;51.35
48778;BME280;34578;0.000;0.000;2023-02-03T15:10:39;97965.13;;;17.22;51.44
48778;BME280;34578;0.000;0.000;2023-02-03T15:15:40;97974.34;;;17.18;51.48
48778;BME280;34578;0.000;0.000;2023-02-03T15:20:44;97958.25;;;17.16;51.20
48778;BME280;34578;0.000;0.000;2023-02-03T15:25:54;97966.66;;;17.14;51.12
48778;BME280;34578;0.000;0.000;2023-02-03T15:36:15;97983.59;;;17.18;51.52
48778;BME280;34578;0.000;0.000;2023-02-03T15:41:25;97998.75;;;17.16;50.49
48778;BME280;34578;0.000;0.000;2023-02-03T15:46:35;98008.03;;;17.17;50.41
48778;BME280;34578;0.000;0.000;2023-02-03T15:51:51;98000.34;;;17.13;51.17
48778;BME280;34578;0.000;0.000;2023-02-03T15:56:57;98022.22;;;17.11;51.30
48778;BME280;34578;0.000;0.000;2023-02-03T16:02:01;98002.16;;;16.86;49.27
48778;BME280;34578;0.000;0.000;2023-02-03T16:07:01;98008.44;;;16.69;47.83
48778;BME280;34578;0.000;0.000;2023-02-03T16:12:30;97999.56;;;16.83;48.71
48778;BME280;34578;0.000;0.000;2023-02-03T16:17:32;97991.97;;;16.83;48.47
48778;BME280;34578;0.000;0.000;2023-02-03T16:22:45;98010.09;;;16.98;49.51
48778;BME280;34578;0.000;0.000;2023-02-03T16:28:10;98004.41;;;17.06;51.30
48778;BME280;34578;0.000;0.000;2023-02-03T16:33:31;97988.38;;;17.06;51.34
48778;BME280;34578;0.000;0.000;2023-02-03T16:38:50;97981.56;;;17.05;52.49
48778;BME280;34578;0.000;0.000;2023-02-03T16:44:10;97983.19;;;17.01;52.42
48778;BME280;34578;0.000;0.000;2023-02-03T16:49:29;97991.78;;;17.08;51.18
48778;BME280;34578;0.000;0.000;2023-02-03T16:54:50;97992.63;;;17.07;51.12
48778;BME280;34578;0.000;0.000;2023-02-03T16:59:50;98002.72;;;17.07;51.28
48778;BME280;34578;0.000;0.000;2023-02-03T17:04:51;97996.84;;;17.08;51.32
48778;BME280;34578;0.000;0.000;2023-02-03T17:09:51;97996.84;;;17.08;51.28
48778;BME280;34578;0.000;0.000;2023-02-03T17:14:52;97989.16;;;17.05;51.69
48778;BME280;34578;0.000;0.000;2023-02-03T17:19:53;97997.44;;;16.98;51.09
48778;BME280;34578;0.000;0.000;2023-02-03T17:24:56;98001.81;;;17.05;50.92
48778;BME280;34578;0.000;0.000;2023-02-03T17:29:56;98011.94;;;17.05;51.78
48778;BME280;34578;0.000;0.000;2023-02-03T17:34:58;98013.69;;;17.06;51.77
48778;BME280;34578;0.000;0.000;2023-02-03T17:39:59;98016.16;;;17.04;51.83
48778;BME280;34578;0.000;0.000;2023-02-03T17:44:59;98025.50;;;17.07;51.37
48778;BME280;34578;0.000;0.000;2023-02-03T17:50:00;98026.34;;;17.07;50.55
48778;BME280;34578;0.000;0.000;2023-02-03T17:55:00;98035.53;;;17.04;53.06
48778;BME280;34578;0.000;0.000;2023-02-03T18:00:01;98034.69;;;17.05;54.48
48778;BME280;34578;0.000;0.000;2023-02-03T18:05:01;98013.69;;;17.06;53.01
48778;BME280;34578;0.000;0.000;2023-02-03T18:10:02;98010.38;;;17.10;52.70
48778;BME280;34578;0.000;0.000;2023-02-03T18:15:03;98014.69;;;17.12;52.25
48778;BME280;34578;0.000;0.000;2023-02-03T18:20:03;98018.88;;;17.12;52.15
48778;BME280;34578;0.000;0.000;2023-02-03T18:25:04;98018.84;;;17.10;53.36
48778;BME280;34578;0.000;0.000;2023-02-03T18:30:05;98015.38;;;17.07;53.42
48778;BME280;34578;0.000;0.000;2023-02-03T18:35:08;98017.09;;;17.08;52.67
48778;BME280;34578;0.000;0.000;2023-02-03T18:40:13;98027.28;;;17.11;51.88
48778;BME280;34578;0.000;0.000;2023-02-03T18:45:13;98018.88;;;17.12;52.07
48778;BME280;34578;0.000;0.000;2023-02-03T18:50:14;98018.06;;;17.13;51.85
48778;BME280;34578;0.000;0.000;2023-02-03T18:55:14;98022.31;;;17.14;52.79
48778;BME280;34578;0.000;0.000;2023-02-03T19:00:15;98018.88;;;17.12;53.77
48778;BME280;34578;0.000;0.000;2023-02-03T19:05:15;98011.28;;;17.12;52.41
48778;BME280;34578;0.000;0.000;2023-02-03T19:10:16;98020.50;;;17.10;54.34
48778;BME280;34578;0.000;0.000;2023-02-03T19:15:17;98024.56;;;17.03;56.41
48778;BME280;34578;0.000;0.000;2023-02-03T19:20:18;98029.63;;;17.03;54.64
48778;BME280;34578;0.000;0.000;2023-02-03T19:25:19;98022.88;;;17.04;53.71
48778;BME280;34578;0.000;0.000;2023-02-03T19:30:19;98043.13;;;17.04;53.45
48778;BME280;34578;0.000;0.000;2023-02-03T19:35:21;98034.63;;;17.02;53.71
48778;BME280;34578;0.000;0.000;2023-02-03T19:40:21;98028.75;;;17.03;54.32
48778;BME280;34578;0.000;0.000;2023-02-03T19:45:21;98033.88;;;17.04;53.41
48778;BME280;34578;0.000;0.000;2023-02-03T19:50:22;98038.88;;;17.03;53.00
48778;BME280;34578;0.000;0.000;2023-02-03T19:55:22;98021.16;;;17.01;53.95
48778;BME280;34578;0.000;0.000;2023-02-03T20:00:22;98025.34;;;17.01;53.38
48778;BME280;34578;0.000;0.000;2023-02-03T20:05:23;98024.44;;;16.99;53.42
48778;BME280;34578;0.000;0.000;2023-02-03T20:10:23;98018.56;;;17.00;53.04
48778;BME280;34578;0.000;0.000;2023-02-03T20:15:25;98021.91;;;16.99;53.96
48778;BME280;34578;0.000;0.000;2023-02-03T20:20:26;98022.75;;;16.98;53.33
48778;BME280;34578;0.000;0.000;2023-02-03T20:25:26;98034.56;;;16.99;54.45
48778;BME280;34578;0.000;0.000;2023-02-03T20:30:27;98040.44;;;16.98;55.19
48778;BME280;34578;0.000;0.000;2023-02-03T20:35:27;98043.75;;;16.97;55.06
48778;BME280;34578;0.000;0.000;2023-02-03T20:40:27;98038.69;;;16.97;53.62
48778;BME280;34578;0.000;0.000;2023-02-03T20:45:28;98040.44;;;16.98;53.76
48778;BME280;34578;0.000;0.000;2023-02-03T20:50:29;98026.81;;;16.93;51.72
48778;BME280;34578;0.000;0.000;2023-02-03T20:55:29;98041.22;;;16.95;52.69
48778;BME280;34578;0.000;0.000;2023-02-03T21:00:29;98049.69;;;16.97;52.35
48778;BME280;34578;0.000;0.000;2023-02-03T21:05:33;98051.34;;;16.95;53.27
48778;BME280;34578;0.000;0.000;2023-02-03T21:10:34;98063.16;;;16.96;52.67
48778;BME280;34578;0.000;0.000;2023-02-03T21:15:35;98073.34;;;16.99;52.34
48778;BME280;34578;0.000;0.000;2023-02-03T21:20:36;98080.13;;;17.00;52.71
48778;BME280;34578;0.000;0.000;2023-02-03T21:25:37;98069.06;;;16.97;53.04
48778;BME280;34578;0.000;0.000;2023-02-03T21:30:37;98079.09;;;16.94;52.98
48778;BME280;34578;0.000;0.000;2023-02-03T21:35:37;98072.50;;;16.99;52.92
48778;BME280;34578;0.000;0.000;2023-02-03T21:40:38;98073.41;;;17.01;52.99
48778;BME280;34578;0.000;0.000;2023-02-03T21:45:41;98073.28;;;16.96;54.87
48778;BME280;34578;0.000;0.000;2023-02-03T21:50:42;98069.00;;;16.94;54.65
48778;BME280;34578;0.000;0.000;2023-02-03T21:55:42;98060.69;;;16.98;53.30
48778;BME280;34578;0.000;0.000;2023-02-03T22:00:43;98064.00;;;16.97;53.48
48778;BME280;34578;0.000;0.000;2023-02-03T22:05:47;98064.81;;;16.96;53.65
48778;BME280;34578;0.000;0.000;2023-02-03T22:10:48;98070.69;;;16.95;53.49
48778;BME280;34578;0.000;0.000;2023-02-03T22:15:49;98074.88;;;16.93;53.66
48778;BME280;34578;0.000;0.000;2023-02-03T22:20:49;98072.28;;;16.90;53.87
48778;BME280;34578;0.000;0.000;2023-02-03T22:25:50;98073.88;;;16.88;53.40
48778;BME280;34578;0.000;0.000;2023-02-03T22:30:51;98079.03;;;16.91;53.39
48778;BME280;34578;0.000;0.000;2023-02-03T22:35:52;98075.63;;;16.89;53.98
48778;BME280;34578;0.000;0.000;2023-02-03T22:40:53;98073.03;;;16.87;53.43
48778;BME280;34578;0.000;0.000;2023-02-03T22:45:53;98072.16;;;16.87;53.08
48778;BME280;34578;0.000;0.000;2023-02-03T22:50:54;98085.56;;;16.84;54.09
48778;BME280;34578;0.000;0.000;2023-02-03T22:55:55;98083.91;;;16.85;52.98
48778;BME280;34578;0.000;0.000;2023-02-03T23:00:55;98077.22;;;16.87;54.47
48778;BME280;34578;0.000;0.000;2023-02-03T23:05:56;98083.16;;;16.87;54.43
48778;BME280;34578;0.000;0.000;2023-02-03T23:10:56;98084.91;;;16.90;54.17
48778;BME280;34578;0.000;0.000;2023-02-03T23:15:56;98080.63;;;16.87;53.79
48778;BME280;34578;0.000;0.000;2023-02-03T23:20:57;98087.44;;;16.90;53.48
48778;BME280;34578;0.000;0.000;2023-02-03T23:25:57;98084.81;;;16.87;54.40
48778;BME280;34578;0.000;0.000;2023-02-03T23:30:57;98094.09;;;16.88;54.66
48778;BME280;34578;0.000;0.000;2023-02-03T23:35:58;98097.47;;;16.87;54.25
48778;BME280;34578;0.000;0.000;2023-02-03T23:40:58;98092.25;;;16.81;55.22
48778;BME280;34578;0.000;0.000;2023-02-03T23:45:59;98082.91;;;16.78;55.35
48778;BME280;34578;0.000;0.000;2023-02-03T23:50:59;98086.25;;;16.79;55.89
48778;BME280;34578;0.000;0.000;2023-02-03T23:55:59;98079.50;;;16.78;55.72
